Time;durP1;ratioP1;P1;durP2;ratioP2;P2;SDS_P1;SDS_P2;PMS_P1;PMS_P2;Temp;Humidity;BMP_temperature;BMP_pressure;BME280_temperature;BME280_humidity;BME280_pressure;Samples;Min_cycle;Max_cycle;Signal;HPM_P1;HPM_P2
2022/08/09 00:02:58;;;;;;;6.20;3.62;;;;;;;13.67;65.14;101089.98;2076587;84;21047;-72
2022/08/09 00:05:59;;;;;;;6.97;3.47;;;;;;;13.63;65.26;101093.98;2079727;84;20990;-69
2022/08/09 00:09:01;;;;;;;4.75;3.52;;;;;;;13.54;65.19;101089.61;2080065;84;21057;-68
2022/08/09 00:12:02;;;;;;;5.80;3.58;;;;;;;13.42;65.29;101103.23;2080206;84;20952;-69
2022/08/09 00:15:05;;;;;;;4.97;3.95;;;;;;;13.40;65.55;101099.92;2076678;84;21048;-68
2022/08/09 00:18:06;;;;;;;6.15;3.65;;;;;;;13.40;65.65;101095.92;2077203;84;21054;-69
2022/08/09 00:21:08;;;;;;;6.90;4.00;;;;;;;13.33;65.59;101094.88;2077075;84;21016;-68
2022/08/09 00:24:09;;;;;;;5.90;4.00;;;;;;;13.26;65.79;101097.01;2068490;84;21015;-69
2022/08/09 00:27:10;;;;;;;6.47;4.10;;;;;;;13.22;65.94;101097.80;2069530;84;21046;-69
2022/08/09 00:30:12;;;;;;;7.10;3.77;;;;;;;13.13;66.04;101101.44;2072841;84;21017;-68
2022/08/09 00:33:13;;;;;;;7.53;3.70;;;;;;;13.07;66.08;101102.08;2071080;84;21012;-67
2022/08/09 00:36:15;;;;;;;5.50;4.00;;;;;;;13.00;66.30;101093.36;2077236;84;22222;-68
2022/08/09 00:39:16;;;;;;;11.22;3.67;;;;;;;12.94;66.55;101093.17;2073313;84;21101;-68
2022/08/09 00:42:18;;;;;;;5.35;3.83;;;;;;;12.88;66.54;101098.63;2071788;84;21072;-69
2022/08/09 00:45:19;;;;;;;8.05;3.95;;;;;;;12.86;66.72;101097.95;2074749;84;21011;-67
2022/08/09 00:48:20;;;;;;;9.00;3.30;;;;;;;12.87;66.73;101098.30;2074259;84;21050;-69
2022/08/09 00:51:22;;;;;;;8.70;4.30;;;;;;;12.92;66.77;101105.33;2077232;84;20965;-67
2022/08/09 00:54:24;;;;;;;6.83;3.72;;;;;;;12.97;66.75;101096.84;2077857;84;21018;-68
2022/08/09 00:57:25;;;;;;;9.30;3.70;;;;;;;13.01;66.82;101095.05;2047634;84;20962;-68
2022/08/09 01:00:27;;;;;;;7.22;4.03;;;;;;;13.01;66.84;101095.05;2073623;84;21522;-68
2022/08/09 01:03:49;;;;;;;5.35;3.60;;;;;;;12.99;66.98;101101.03;2072938;84;20991;-67
2022/08/09 01:07:10;;;;;;;7.30;3.67;;;;;;;12.94;66.96;101104.66;2079580;84;20979;-68
2022/08/09 01:10:35;;;;;;;7.58;3.92;;;;;;;12.88;66.95;101103.13;2051581;84;21044;-68
2022/08/09 01:13:56;;;;;;;4.30;3.10;;;;;;;12.76;67.09;101103.90;2068427;84;21134;-68
2022/08/09 01:17:11;;;;;;;7.75;3.80;;;;;;;12.71;67.17;101107.02;2093657;83;21793;-69
2022/08/09 01:20:30;;;;;;;8.00;3.50;;;;;;;12.67;67.19;101110.14;2064125;84;21479;-68
2022/08/09 01:23:56;;;;;;;7.53;3.22;;;;;;;12.63;67.31;101101.64;2070650;84;21044;-69
2022/08/09 01:27:09;;;;;;;9.25;4.05;;;;;;;12.66;67.40;101106.65;2070448;84;21605;-68
2022/08/09 01:30:11;;;;;;;5.75;3.52;;;;;;;12.67;67.42;101111.47;2075474;84;21056;-67
2022/08/09 01:33:14;;;;;;;4.87;3.98;;;;;;;12.74;67.50;101104.55;2074903;84;21565;-69
2022/08/09 01:36:19;;;;;;;6.55;3.37;;;;;;;12.77;67.64;101109.55;2071407;84;21431;-67
2022/08/09 01:39:23;;;;;;;6.35;3.58;;;;;;;12.81;67.49;101110.06;2075945;84;21050;-68
2022/08/09 01:42:26;;;;;;;7.58;3.85;;;;;;;12.73;67.31;101113.54;2068748;84;21038;-68
2022/08/09 01:45:29;;;;;;;6.30;3.40;;;;;;;12.63;67.33;101110.12;2078205;84;20996;-67
2022/08/09 01:48:32;;;;;;;5.45;3.72;;;;;;;12.52;67.38;101113.88;2051486;84;21082;-68
2022/08/09 01:51:37;;;;;;;8.70;3.75;;;;;;;12.47;67.51;101114.83;2076555;84;21007;-68
2022/08/09 01:54:43;;;;;;;6.53;3.40;;;;;;;12.40;67.62;101117.28;2079798;84;21791;-68
2022/08/09 01:57:48;;;;;;;5.70;3.45;;;;;;;12.35;67.66;101119.56;2073051;84;21043;-72
2022/08/09 02:00:52;;;;;;;3.55;3.25;;;;;;;12.33;67.62;101116.21;2075249;84;21023;-69
2022/08/09 02:03:56;;;;;;;7.47;3.47;;;;;;;12.25;67.69;101118.83;2074925;84;21045;-68
2022/08/09 02:07:14;;;;;;;5.28;3.22;;;;;;;12.19;67.78;101118.09;2075754;84;21058;-67
2022/08/09 02:10:20;;;;;;;3.87;3.47;;;;;;;12.16;67.90;101117.89;2078868;84;21038;-68
2022/08/09 02:13:24;;;;;;;5.95;4.00;;;;;;;12.15;68.00;101116.23;2078825;84;21067;-72
2022/08/09 02:16:25;;;;;;;7.87;3.42;;;;;;;12.05;68.11;101113.67;2080894;84;20999;-68
2022/08/09 02:19:27;;;;;;;5.08;3.27;;;;;;;12.02;68.32;101115.77;2074911;84;20994;-69
2022/08/09 02:22:38;;;;;;;8.90;3.67;;;;;;;11.99;68.48;101119.57;2070013;85;21124;-71
2022/08/09 02:25:43;;;;;;;4.85;3.42;;;;;;;11.95;68.69;101112.89;2064844;85;22484;-68
2022/08/09 02:28:52;;;;;;;5.95;3.37;;;;;;;12.00;68.98;101115.94;2060352;85;21374;-68
2022/08/09 02:32:01;;;;;;;4.40;3.33;;;;;;;12.06;69.04;101109.18;2062231;85;21523;-68
2022/08/09 02:35:06;;;;;;;4.78;3.17;;;;;;;12.11;68.91;101109.56;2047660;85;21119;-68
2022/08/09 02:38:10;;;;;;;4.83;3.30;;;;;;;12.12;69.12;101109.89;2041829;86;21066;-68
2022/08/09 02:41:16;;;;;;;4.50;3.00;;;;;;;12.15;69.22;101107.42;2066367;85;20951;-71
2022/08/09 02:44:23;;;;;;;5.37;3.75;;;;;;;12.15;69.41;101104.77;2059675;85;21064;-68
2022/08/09 02:47:26;;;;;;;5.55;3.55;;;;;;;12.13;69.48;101105.41;2059468;85;21032;-68
2022/08/09 02:50:35;;;;;;;10.88;4.12;;;;;;;12.13;69.70;101102.74;2064373;85;21090;-68
2022/08/09 02:53:41;;;;;;;12.07;4.45;;;;;;;12.12;69.77;101108.56;2062657;85;21807;-68
2022/08/09 02:56:47;;;;;;;6.25;3.27;;;;;;;12.11;70.03;101104.24;2062269;85;21029;-68
2022/08/09 02:59:48;;;;;;;7.47;3.27;;;;;;;12.13;70.14;101105.41;2061774;85;20973;-68
2022/08/09 03:02:54;;;;;;;6.37;3.87;;;;;;;12.14;70.27;101101.77;2060813;85;21111;-68
2022/08/09 03:05:58;;;;;;;5.83;3.90;;;;;;;12.15;70.43;101104.27;2061754;85;21126;-69
2022/08/09 03:09:01;;;;;;;8.75;4.45;;;;;;;12.22;70.68;101104.47;2055966;85;21056;-69
2022/08/09 03:12:04;;;;;;;12.60;4.25;;;;;;;12.30;70.70;101105.88;2062264;85;20997;-69
2022/08/09 03:15:08;;;;;;;8.10;4.08;;;;;;;12.37;70.80;101108.28;2065309;85;21039;-68
2022/08/09 03:18:10;;;;;;;7.85;4.15;;;;;;;12.44;70.90;101109.31;2063808;85;21040;-68
2022/08/09 03:21:14;;;;;;;6.30;4.55;;;;;;;12.52;70.90;101102.72;2066749;85;21072;-69
2022/08/09 03:24:18;;;;;;;7.05;4.15;;;;;;;12.60;70.96;101106.45;2079327;84;21552;-68
2022/08/09 03:27:20;;;;;;;7.37;4.50;;;;;;;12.59;70.89;101106.12;2081019;84;21069;-68
2022/08/09 03:30:22;;;;;;;6.12;3.80;;;;;;;12.56;71.04;101104.10;2079540;84;21520;-68
2022/08/09 03:33:24;;;;;;;5.60;3.92;;;;;;;12.56;71.02;101103.27;2082829;84;21005;-67
2022/08/09 03:36:25;;;;;;;6.42;4.03;;;;;;;12.54;71.16;101110.56;2081583;84;21087;-69
2022/08/09 03:39:27;;;;;;;9.38;4.08;;;;;;;12.52;71.09;101104.55;2055438;84;21027;-69
2022/08/09 03:42:28;;;;;;;7.72;4.15;;;;;;;12.50;71.08;101107.39;2081403;84;22253;-68
2022/08/09 03:45:29;;;;;;;6.15;3.77;;;;;;;12.55;71.22;101102.41;2079512;84;20950;-68
2022/08/09 03:48:33;;;;;;;6.95;4.03;;;;;;;12.60;71.38;101110.44;2077584;84;21632;-69
2022/08/09 03:51:41;;;;;;;6.03;4.12;;;;;;;12.59;71.37;101108.78;2083298;84;21011;-69
2022/08/09 03:54:44;;;;;;;6.15;4.12;;;;;;;12.59;71.54;101104.29;2084337;84;21009;-68
2022/08/09 03:57:47;;;;;;;6.05;4.15;;;;;;;12.63;71.74;101102.14;2095131;84;21544;-68
2022/08/09 04:00:49;;;;;;;7.30;4.10;;;;;;;12.69;71.88;101104.17;2095430;84;20978;-68
2022/08/09 04:03:53;;;;;;;7.28;4.20;;;;;;;12.75;71.94;101101.73;2097646;84;21093;-71
2022/08/09 04:06:54;;;;;;;7.12;3.92;;;;;;;12.88;72.14;101105.80;2091766;84;21105;-72
2022/08/09 04:09:55;;;;;;;9.40;3.67;;;;;;;13.06;72.22;101105.72;2095784;84;21086;-69
2022/08/09 04:12:59;;;;;;;5.58;3.58;;;;;;;13.30;72.34;101107.20;2095820;84;21005;-69
2022/08/09 04:16:00;;;;;;;7.60;3.25;;;;;;;13.52;72.13;101100.96;2094752;84;21042;-71
2022/08/09 04:19:01;;;;;;;11.22;3.92;;;;;;;13.80;72.24;101109.03;2069620;84;21096;-69
2022/08/09 04:22:03;;;;;;;10.55;4.42;;;;;;;14.20;72.19;101107.41;2074159;84;21021;-68
2022/08/09 04:25:06;;;;;;;7.53;3.85;;;;;;;14.66;71.96;101111.73;2072500;84;21050;-69
2022/08/09 04:28:07;;;;;;;5.90;3.95;;;;;;;15.15;71.63;101119.66;2073876;84;21541;-72
2022/08/09 04:31:07;;;;;;;8.65;3.85;;;;;;;15.59;70.99;101117.77;2072841;84;21057;-68
2022/08/09 04:34:08;;;;;;;6.80;3.42;;;;;;;15.98;70.31;101121.44;2072586;84;20980;-68
2022/08/09 04:37:09;;;;;;;7.25;4.28;;;;;;;16.43;69.87;101121.91;2072758;84;21750;-69
2022/08/09 04:40:11;;;;;;;7.42;4.25;;;;;;;16.89;69.46;101116.47;2073582;84;20976;-69
2022/08/09 04:43:14;;;;;;;6.08;3.95;;;;;;;17.38;68.83;101115.91;2075049;84;21617;-68
2022/08/09 04:46:15;;;;;;;8.33;3.90;;;;;;;17.89;68.31;101114.57;2076066;84;21633;-70
2022/08/09 04:49:17;;;;;;;6.53;3.70;;;;;;;18.32;67.23;101119.93;2077465;84;21036;-69
2022/08/09 04:52:23;;;;;;;8.13;3.77;;;;;;;18.65;66.65;101130.13;2076282;84;21275;-69
2022/08/09 04:55:24;;;;;;;6.10;3.17;;;;;;;18.92;65.58;101126.30;2078492;84;21063;-73
2022/08/09 04:58:29;;;;;;;5.05;3.35;;;;;;;19.11;64.86;101126.12;2067843;84;21028;-68
2022/08/09 05:01:31;;;;;;;6.65;3.40;;;;;;;19.41;64.99;101130.73;2070541;84;21462;-68
2022/08/09 05:04:32;;;;;;;6.60;3.37;;;;;;;19.75;63.67;101127.16;2079939;84;21062;-69
2022/08/09 05:07:33;;;;;;;7.12;3.47;;;;;;;19.50;63.23;101129.52;2074682;84;21145;-72
2022/08/09 05:10:34;;;;;;;4.75;3.10;;;;;;;19.43;63.28;101132.19;2078582;84;20975;-68
2022/08/09 05:13:35;;;;;;;4.45;3.52;;;;;;;19.92;63.26;101140.55;2076216;84;21464;-68
2022/08/09 05:16:36;;;;;;;7.25;3.33;;;;;;;20.26;62.61;101150.05;2073567;84;21521;-68
2022/08/09 05:19:37;;;;;;;8.55;3.65;;;;;;;20.04;61.99;101157.47;2073942;84;21002;-71
2022/08/09 05:22:38;;;;;;;4.80;3.33;;;;;;;19.95;62.00;101156.83;2074029;84;20987;-67
2022/08/09 05:25:40;;;;;;;5.55;3.52;;;;;;;19.67;61.91;101151.04;2077950;85;21101;-69
2022/08/09 05:28:41;;;;;;;5.10;3.10;;;;;;;19.44;62.25;101162.09;2077557;85;21481;-68
2022/08/09 05:31:42;;;;;;;5.22;3.95;;;;;;;19.26;62.36;101162.64;2076591;85;21413;-69
2022/08/09 05:34:44;;;;;;;6.10;4.40;;;;;;;19.07;62.66;101156.63;2077144;85;21504;-67
2022/08/09 05:37:47;;;;;;;7.17;4.10;;;;;;;18.93;62.75;101162.42;2079841;85;21523;-68
2022/08/09 05:40:49;;;;;;;9.50;4.40;;;;;;;18.89;62.93;101156.28;2077294;85;20983;-67
2022/08/09 05:43:50;;;;;;;10.32;4.72;;;;;;;18.83;62.99;101160.58;2076515;85;21054;-68
2022/08/09 05:46:51;;;;;;;15.55;4.55;;;;;;;18.78;62.77;101162.53;2076884;85;21030;-68
2022/08/09 05:49:55;;;;;;;10.23;4.17;;;;;;;18.72;62.79;101159.22;2078891;85;21021;-68
2022/08/09 05:52:56;;;;;;;5.83;4.10;;;;;;;18.71;62.89;101161.61;2075962;85;20946;-68
2022/08/09 05:55:57;;;;;;;9.50;3.98;;;;;;;18.62;62.86;101165.47;2074971;85;22475;-68
2022/08/09 05:58:58;;;;;;;5.55;3.75;;;;;;;18.63;63.27;101171.16;2079034;85;21019;-68
2022/08/09 06:01:59;;;;;;;6.50;3.80;;;;;;;18.57;63.22;101161.19;2076008;85;21042;-67
2022/08/09 06:05:01;;;;;;;6.08;4.03;;;;;;;18.57;63.31;101169.25;2078982;85;21498;-68
2022/08/09 06:08:02;;;;;;;7.15;4.22;;;;;;;18.55;63.18;101165.91;2074183;85;21047;-68
2022/08/09 06:11:04;;;;;;;7.45;4.25;;;;;;;18.58;63.33;101173.58;2082837;85;21026;-69
2022/08/09 06:14:05;;;;;;;8.88;3.52;;;;;;;18.59;63.40;101171.23;2079992;85;21054;-68
2022/08/09 06:17:06;;;;;;;11.30;3.98;;;;;;;18.61;63.46;101169.16;2076918;85;21497;-69
2022/08/09 06:20:08;;;;;;;6.35;3.55;;;;;;;18.58;63.51;101169.55;2080475;85;21009;-67
2022/08/09 06:23:09;;;;;;;6.97;3.60;;;;;;;18.60;63.66;101172.89;2076068;85;21066;-69
2022/08/09 06:26:12;;;;;;;6.47;4.08;;;;;;;18.66;63.76;101172.63;2075917;85;21049;-72
2022/08/09 06:29:13;;;;;;;5.92;3.52;;;;;;;18.74;63.78;101176.03;2076746;85;20999;-68
2022/08/09 06:32:14;;;;;;;6.62;3.67;;;;;;;18.85;63.87;101180.56;2077022;85;21041;-68
2022/08/09 06:35:16;;;;;;;6.12;3.77;;;;;;;18.92;63.84;101176.05;2077306;85;20985;-69
2022/08/09 06:38:17;;;;;;;6.67;3.75;;;;;;;18.84;63.99;101179.74;2082115;85;21037;-67
2022/08/09 06:41:18;;;;;;;4.28;3.67;;;;;;;18.86;64.02;101175.50;2078099;85;21023;-68
2022/08/09 06:44:19;;;;;;;7.90;4.25;;;;;;;18.95;64.22;101177.00;2078997;85;21047;-68
2022/08/09 06:47:20;;;;;;;7.45;3.80;;;;;;;19.04;63.86;101179.87;2079812;85;21018;-69
2022/08/09 06:50:21;;;;;;;8.03;3.60;;;;;;;19.17;63.80;101183.16;2076197;85;21058;-68
2022/08/09 06:53:22;;;;;;;6.50;4.17;;;;;;;19.25;63.54;101182.48;2077349;85;21072;-68
2022/08/09 06:56:23;;;;;;;6.83;3.27;;;;;;;19.36;63.45;101177.58;2075800;85;21044;-71
2022/08/09 06:59:24;;;;;;;4.90;3.40;;;;;;;19.47;63.43;101194.52;2075231;85;21031;-69
2022/08/09 07:02:25;;;;;;;7.25;3.12;;;;;;;19.60;63.11;101189.20;2077415;85;21536;-68
2022/08/09 07:05:26;;;;;;;4.90;3.20;;;;;;;19.81;63.01;101192.83;2076285;85;21050;-68
2022/08/09 07:08:28;;;;;;;7.90;3.17;;;;;;;19.82;62.41;101203.41;2078268;85;21053;-67
2022/08/09 07:11:29;;;;;;;3.70;3.02;;;;;;;19.89;62.47;101203.43;2075335;85;21003;-68
2022/08/09 07:14:30;;;;;;;4.97;3.30;;;;;;;19.98;62.22;101202.20;2079279;85;21524;-70
2022/08/09 07:17:31;;;;;;;6.33;3.47;;;;;;;20.02;61.99;101206.17;2076648;85;21042;-70
2022/08/09 07:20:32;;;;;;;5.15;3.55;;;;;;;20.03;61.84;101210.52;2077226;85;21052;-68
2022/08/09 07:23:34;;;;;;;5.60;3.30;;;;;;;20.05;61.71;101205.77;2074285;84;21536;-68
2022/08/09 07:26:35;;;;;;;8.83;3.77;;;;;;;20.10;61.69;101208.69;2073058;84;21046;-68
2022/08/09 07:29:37;;;;;;;4.10;3.27;;;;;;;20.17;61.34;101207.34;2079718;84;21064;-71
2022/08/09 07:32:40;;;;;;;7.83;4.00;;;;;;;20.24;61.16;101211.39;2070685;84;21843;-68
2022/08/09 07:35:41;;;;;;;7.85;3.60;;;;;;;20.34;61.06;101211.31;2073511;84;21086;-71
2022/08/09 07:38:42;;;;;;;7.28;2.80;;;;;;;20.51;60.98;101216.33;2076635;84;21114;-68
2022/08/09 07:41:43;;;;;;;10.90;3.17;;;;;;;20.63;60.63;101219.27;2073651;84;21274;-69
2022/08/09 07:44:44;;;;;;;6.80;2.90;;;;;;;20.80;60.28;101221.86;2073572;84;21000;-68
2022/08/09 07:47:46;;;;;;;6.97;2.85;;;;;;;21.01;60.29;101227.05;2067879;84;21025;-67
2022/08/09 07:50:47;;;;;;;6.03;3.00;;;;;;;21.20;59.70;101221.83;2073829;84;21029;-69
2022/08/09 07:53:50;;;;;;;10.80;2.87;;;;;;;21.39;59.34;101222.34;2079043;84;21125;-68
2022/08/09 07:56:52;;;;;;;7.62;2.85;;;;;;;21.64;58.74;101227.88;2093596;83;21583;-68
2022/08/09 07:59:53;;;;;;;10.95;2.77;;;;;;;21.88;58.70;101223.64;2080149;84;21003;-69
2022/08/09 08:02:54;;;;;;;6.20;2.67;;;;;;;22.14;58.04;101227.26;2070819;84;20997;-68
2022/08/09 08:05:55;;;;;;;6.00;2.70;;;;;;;22.41;57.25;101220.36;2075664;84;21017;-69
2022/08/09 08:08:56;;;;;;;8.88;2.40;;;;;;;22.74;57.34;101218.23;2077716;84;21029;-68
2022/08/09 08:11:56;;;;;;;5.22;2.62;;;;;;;23.12;56.74;101214.62;2077883;84;21567;-68
2022/08/09 08:14:58;;;;;;;8.05;2.40;;;;;;;23.33;55.29;101216.59;2077958;84;21079;-68
2022/08/09 08:17:59;;;;;;;7.83;2.42;;;;;;;23.63;54.61;101221.56;2072780;84;20958;-69
2022/08/09 08:21:00;;;;;;;4.87;2.15;;;;;;;23.88;53.90;101216.61;2073108;84;21788;-68
2022/08/09 08:24:01;;;;;;;6.30;2.67;;;;;;;24.12;52.51;101219.70;2071009;84;21070;-68
2022/08/09 08:27:03;;;;;;;5.15;2.50;;;;;;;24.31;52.63;101214.23;2080607;84;21059;-69
2022/08/09 08:30:05;;;;;;;6.85;2.10;;;;;;;24.56;52.15;101220.34;2076491;84;20959;-68
2022/08/09 08:33:06;;;;;;;3.85;2.20;;;;;;;24.86;51.94;101219.95;2076067;84;21699;-69
2022/08/09 08:36:07;;;;;;;5.70;2.22;;;;;;;24.98;51.51;101213.48;2077136;84;21032;-69
2022/08/09 08:39:10;;;;;;;8.13;2.00;;;;;;;25.17;51.12;101216.09;2079408;84;21037;-68
2022/08/09 08:42:12;;;;;;;3.70;2.33;;;;;;;25.33;50.90;101214.02;2072489;84;21620;-72
2022/08/09 08:45:15;;;;;;;6.58;2.20;;;;;;;25.47;50.55;101216.77;2082941;84;21001;-69
2022/08/09 08:48:17;;;;;;;6.50;2.10;;;;;;;25.72;48.35;101222.45;2077211;84;20992;-72
2022/08/09 08:51:21;;;;;;;5.30;1.92;;;;;;;25.78;48.12;101225.56;2073607;84;21053;-69
2022/08/09 08:54:23;;;;;;;9.70;2.80;;;;;;;25.84;48.20;101225.98;2061596;85;21029;-69
2022/08/09 08:57:26;;;;;;;6.87;2.12;;;;;;;25.80;47.70;101224.80;2080307;84;21038;-69
2022/08/09 09:00:27;;;;;;;5.15;2.52;;;;;;;25.82;47.41;101221.31;2076197;84;21549;-69
2022/08/09 09:03:34;;;;;;;6.22;2.25;;;;;;;26.02;47.83;101225.53;2072405;84;21075;-69
2022/08/09 09:06:38;;;;;;;3.60;1.80;;;;;;;26.16;46.80;101223.63;2070869;84;21532;-72
2022/08/09 09:09:44;;;;;;;2.85;1.98;;;;;;;25.87;45.23;101228.22;2081075;84;21009;-69
2022/08/09 09:12:48;;;;;;;6.45;1.90;;;;;;;25.75;46.26;101227.41;2070034;84;21019;-68
2022/08/09 09:15:50;;;;;;;4.08;1.67;;;;;;;25.81;46.26;101223.72;2076500;84;21053;-69
2022/08/09 09:18:54;;;;;;;3.55;1.90;;;;;;;26.01;46.21;101226.03;2077588;84;20968;-68
2022/08/09 09:22:02;;;;;;;5.70;2.00;;;;;;;26.05;45.97;101216.88;2072604;84;21056;-68
2022/08/09 09:25:04;;;;;;;4.78;2.02;;;;;;;26.08;45.76;101225.91;2071798;84;21625;-68
2022/08/09 09:28:05;;;;;;;3.72;2.00;;;;;;;26.00;46.01;101219.50;2078320;84;21049;-69
2022/08/09 09:31:14;;;;;;;6.67;2.00;;;;;;;26.02;45.43;101225.53;2073736;84;21968;-69
2022/08/09 09:34:16;;;;;;;2.98;2.00;;;;;;;25.90;44.46;101223.68;2074129;84;21129;-69
2022/08/09 09:37:27;;;;;;;3.25;2.02;;;;;;;25.83;44.77;101225.70;2068599;84;21029;-73
2022/08/09 09:40:44;;;;;;;8.00;2.30;;;;;;;25.93;44.28;101229.99;2075522;84;21013;-68
2022/08/09 09:43:45;;;;;;;6.97;2.20;;;;;;;25.86;44.16;101229.83;2075207;84;21039;-70
2022/08/09 09:46:46;;;;;;;2.95;2.00;;;;;;;25.87;44.58;101225.50;2077534;84;21549;-70
2022/08/09 09:49:54;;;;;;;5.72;2.00;;;;;;;25.83;43.62;101227.06;2079847;84;21065;-69
2022/08/09 09:52:56;;;;;;;3.75;2.22;;;;;;;25.84;44.33;101221.91;2077032;84;21475;-69
2022/08/09 09:56:00;;;;;;;3.60;2.02;;;;;;;26.01;44.35;101217.06;2074817;84;20967;-69
2022/08/09 09:59:01;;;;;;;2.72;1.98;;;;;;;26.09;44.24;101216.14;2073147;84;21475;-69
2022/08/09 10:02:02;;;;;;;1.85;1.60;;;;;;;26.30;43.50;101216.50;2072350;84;21043;-69
2022/08/09 10:05:12;;;;;;;2.12;1.45;;;;;;;26.12;42.59;101208.84;2054763;84;21011;-68
2022/08/09 10:08:12;;;;;;;2.10;1.87;;;;;;;26.20;42.35;101214.97;2048092;84;21057;-68
2022/08/09 10:11:29;;;;;;;2.87;1.67;;;;;;;26.02;40.54;101207.86;2071080;84;21494;-69
2022/08/09 10:14:30;;;;;;;2.08;1.47;;;;;;;25.85;40.23;101210.52;2072232;84;21042;-72
2022/08/09 10:17:34;;;;;;;4.42;1.70;;;;;;;25.82;41.04;101206.87;2073821;84;21132;-70
2022/08/09 10:20:36;;;;;;;4.28;1.85;;;;;;;26.01;41.08;101207.55;2073257;84;21039;-68
2022/08/09 10:23:37;;;;;;;3.35;1.98;;;;;;;26.44;41.61;101204.27;2073562;84;21358;-69
2022/08/09 10:26:39;;;;;;;1.95;1.80;;;;;;;26.42;38.67;101208.30;2076447;84;21041;-70
2022/08/09 10:29:40;;;;;;;2.05;1.85;;;;;;;26.06;39.49;101215.80;2074368;84;21421;-69
2022/08/09 10:32:43;;;;;;;5.58;2.20;;;;;;;26.32;39.92;101198.05;2071720;84;21035;-69
2022/08/09 10:35:45;;;;;;;6.35;2.42;;;;;;;26.57;40.03;101201.77;2077524;84;20997;-70
2022/08/09 10:38:46;;;;;;;4.00;2.30;;;;;;;26.47;38.33;101201.05;2076896;84;20987;-69
2022/08/09 10:41:48;;;;;;;7.22;2.20;;;;;;;26.35;39.04;101204.35;2073670;84;21061;-68
2022/08/09 10:44:59;;;;;;;3.83;2.37;;;;;;;26.46;39.08;101199.37;2072010;84;21048;-70
2022/08/09 10:48:21;;;;;;;5.78;2.50;;;;;;;26.54;39.59;101200.36;2074761;84;21027;-70
2022/08/09 10:52:10;;;;;;;4.10;2.17;;;;;;;26.79;39.49;101195.87;2081216;84;21068;-73
2022/08/09 10:55:28;;;;;;;2.85;2.17;;;;;;;26.65;39.45;101197.28;2057191;85;21100;-70
2022/08/09 10:58:33;;;;;;;4.75;1.92;;;;;;;26.58;37.61;101198.81;2071920;84;21101;-70
2022/08/09 11:01:38;;;;;;;5.67;1.85;;;;;;;26.61;38.77;101194.78;2079247;84;21007;-70
2022/08/09 11:04:40;;;;;;;2.50;1.82;;;;;;;26.78;38.55;101196.13;2068457;84;21070;-71
2022/08/09 11:07:41;;;;;;;3.83;1.80;;;;;;;26.78;37.57;101188.78;2076702;84;21057;-71
2022/08/09 11:10:51;;;;;;;4.50;1.27;;;;;;;26.58;36.39;101191.16;2070743;84;20961;-70
2022/08/09 11:14:34;;;;;;;3.27;2.20;;;;;;;26.21;36.31;101194.85;2081146;84;21070;-70
2022/08/09 11:17:42;;;;;;;3.30;1.57;;;;;;;26.02;35.80;101189.64;2075102;84;21149;-72
2022/08/09 11:20:47;;;;;;;3.30;1.75;;;;;;;25.84;37.33;101183.84;2072726;84;21030;-70
2022/08/09 11:23:58;;;;;;;5.03;1.80;;;;;;;26.12;37.69;101179.47;2075098;84;21649;-75
2022/08/09 11:27:00;;;;;;;5.20;1.55;;;;;;;26.24;37.42;101177.50;2079467;84;21544;-70
2022/08/09 11:30:04;;;;;;;4.22;1.72;;;;;;;26.32;36.79;101173.56;2060878;84;21040;-70
2022/08/09 11:33:25;;;;;;;2.20;1.50;;;;;;;26.12;35.63;101181.65;2057033;84;21006;-71
2022/08/09 11:36:28;;;;;;;2.62;1.77;;;;;;;25.89;36.66;101177.16;2078232;84;21076;-69
2022/08/09 11:39:29;;;;;;;2.15;1.62;;;;;;;25.86;35.92;101176.28;2050092;84;21071;-69
2022/08/09 11:42:52;;;;;;;4.40;1.40;;;;;;;25.83;35.31;101174.59;2074425;84;21468;-69
2022/08/09 11:46:03;;;;;;;6.28;1.70;;;;;;;26.00;35.96;101174.09;2068907;84;21530;-69
2022/08/09 11:49:06;;;;;;;4.90;1.65;;;;;;;26.08;34.85;101166.91;2076469;84;21058;-69
2022/08/09 11:52:07;;;;;;;5.60;1.77;;;;;;;26.12;36.20;101166.69;2073726;84;21064;-69
2022/08/09 11:55:41;;;;;;;3.25;1.55;;;;;;;26.33;35.69;101163.80;2074520;84;21016;-68
2022/08/09 11:58:50;;;;;;;6.37;1.92;;;;;;;26.72;35.37;101156.27;2065046;84;21084;-69
2022/08/09 12:01:51;;;;;;;4.62;1.52;;;;;;;27.10;35.29;101159.55;2075696;84;21046;-70
2022/08/09 12:04:52;;;;;;;3.15;1.32;;;;;;;27.04;33.94;101159.20;2074134;84;21505;-69
2022/08/09 12:07:55;;;;;;;3.40;1.60;;;;;;;27.05;33.99;101158.11;2072863;84;20992;-70
2022/08/09 12:10:59;;;;;;;3.77;1.60;;;;;;;27.15;33.21;101161.53;2082951;84;21080;-70
2022/08/09 12:14:08;;;;;;;1.70;1.40;;;;;;;26.93;34.62;101158.77;2077156;84;20993;-69
2022/08/09 12:17:13;;;;;;;3.00;1.70;;;;;;;27.09;34.26;101147.53;2069713;84;21022;-70
2022/08/09 12:20:22;;;;;;;4.33;1.75;;;;;;;27.13;34.77;101153.59;2044149;84;21034;-70
2022/08/09 12:23:23;;;;;;;5.78;2.02;;;;;;;27.03;34.71;101148.00;2078358;84;21112;-70
2022/08/09 12:26:25;;;;;;;2.00;1.77;;;;;;;26.78;34.26;101152.03;2073165;84;21054;-71
2022/08/09 12:29:30;;;;;;;3.72;1.90;;;;;;;26.42;34.41;101149.80;2060697;85;21049;-69
2022/08/09 12:32:32;;;;;;;5.15;1.82;;;;;;;26.22;35.37;101143.48;2059072;85;21069;-69
2022/08/09 12:35:35;;;;;;;3.05;2.08;;;;;;;26.28;35.53;101149.30;2064445;85;21027;-69
2022/08/09 12:38:38;;;;;;;2.15;1.70;;;;;;;26.16;36.15;101148.02;2062208;85;21037;-74
2022/08/09 12:41:40;;;;;;;3.58;1.75;;;;;;;26.14;35.75;101137.91;2062860;85;21111;-70
2022/08/09 12:44:42;;;;;;;1.70;1.60;;;;;;;26.22;35.58;101148.38;2062801;85;21654;-69
2022/08/09 12:47:43;;;;;;;4.62;1.72;;;;;;;26.38;35.94;101142.13;2068734;85;20977;-71
2022/08/09 12:50:46;;;;;;;3.40;1.92;;;;;;;26.42;35.84;101141.64;2069082;85;20941;-69
2022/08/09 12:54:01;;;;;;;4.35;1.62;;;;;;;26.50;36.28;101138.50;2058468;85;20989;-71
2022/08/09 12:57:02;;;;;;;2.37;1.57;;;;;;;26.49;35.49;101130.03;2063789;85;21044;-70
2022/08/09 13:00:24;;;;;;;1.55;1.37;;;;;;;26.57;35.59;101125.02;2062614;85;21028;-70
2022/08/09 13:03:29;;;;;;;2.15;1.50;;;;;;;26.60;35.19;101123.70;2064912;85;20988;-70
2022/08/09 13:06:38;;;;;;;1.57;1.47;;;;;;;26.59;35.15;101120.71;2061426;85;21055;-70
2022/08/09 13:09:40;;;;;;;3.20;1.70;;;;;;;26.52;34.72;101117.32;2061349;85;21056;-72
2022/08/09 13:12:47;;;;;;;3.50;1.70;;;;;;;26.22;34.39;101119.83;2064574;85;21003;-70
2022/08/09 13:16:15;;;;;;;3.85;1.50;;;;;;;25.93;35.12;101117.67;2060967;85;21097;-70
2022/08/09 13:19:35;;;;;;;3.58;1.90;;;;;;;25.77;35.64;101112.48;2060813;85;21522;-70
2022/08/09 13:22:52;;;;;;;3.08;1.80;;;;;;;25.84;35.81;101122.68;2054180;85;21025;-71
2022/08/09 13:25:53;;;;;;;2.83;1.70;;;;;;;26.00;35.47;101115.63;2076707;84;21088;-72
2022/08/09 13:29:14;;;;;;;6.90;1.50;;;;;;;26.17;35.66;101115.66;2076336;84;21520;-69
2022/08/09 13:32:16;;;;;;;2.45;1.52;;;;;;;26.62;36.12;101109.86;2092747;84;21069;-70
2022/08/09 13:35:22;;;;;;;2.65;1.70;;;;;;;26.81;35.55;101112.05;2092604;84;20987;-71
2022/08/09 13:38:23;;;;;;;4.50;2.00;;;;;;;26.48;35.13;101111.53;2095976;83;20982;-71
2022/08/09 13:41:25;;;;;;;3.90;1.87;;;;;;;26.28;35.72;101115.30;2096190;84;21089;-71
2022/08/09 13:44:27;;;;;;;4.92;2.00;;;;;;;25.86;36.22;101108.32;2094923;84;20991;-70
2022/08/09 13:47:31;;;;;;;5.12;2.20;;;;;;;25.45;36.42;101120.27;2090729;84;20983;-69
2022/08/09 13:50:31;;;;;;;2.58;1.87;;;;;;;25.27;36.92;101126.70;2080322;84;21035;-70
2022/08/09 13:53:32;;;;;;;2.90;1.90;;;;;;;25.15;37.33;101124.56;2069168;85;20981;-69
2022/08/09 13:56:34;;;;;;;2.92;1.80;;;;;;;25.02;37.53;101125.06;2097148;84;22204;-71
2022/08/09 13:59:35;;;;;;;4.20;1.90;;;;;;;24.86;37.80;101132.56;2083916;84;20992;-69
2022/08/09 14:02:37;;;;;;;5.03;1.90;;;;;;;25.01;38.17;101127.50;2081241;84;21138;-69
2022/08/09 14:05:38;;;;;;;4.83;2.15;;;;;;;25.27;38.15;101129.42;2094725;84;21511;-70
2022/08/09 14:08:41;;;;;;;3.02;1.95;;;;;;;25.43;38.13;101124.60;2096705;84;21012;-70
2022/08/09 14:11:42;;;;;;;6.72;1.77;;;;;;;25.56;37.37;101116.69;2094640;84;20971;-69
2022/08/09 14:14:43;;;;;;;6.53;2.00;;;;;;;25.65;36.84;101121.20;2080467;84;21567;-70
2022/08/09 14:17:44;;;;;;;3.15;2.22;;;;;;;25.59;37.00;101116.73;2071705;84;20989;-69